Last 24 Hours

Red Mountain

10 Minute Data | America/Los_Angeles
as of 8/31/26 4:46 AM PDT
Date & Time Temp (°F) Dew Pt (°F) RH (%) Wind Spd (mph) Wind Dir (°) Wind Gust (mph) Wind Gst Dir (°) Daily Max Temp (°F) Daily Min Temp (°F)
8/31/26 - 0410 68.2 34.2 29 8.4 WSW | 250 10.4 WSW | 247 69.0 66.3
8/31/26 - 0400 68.7 30.3 24 8.9 WSW | 246 10.4 WSW | 249 69.0 66.3
8/31/26 - 0350 68.7 31.4 25 7.8 WSW | 245 9.2 WSW | 244 69.0 66.3
8/31/26 - 0340 67.9 35.1 31 6.5 WSW | 243 8.6 WSW | 248 68.9 66.3
8/31/26 - 0330 66.6 34.8 31 4.8 WSW | 248 6.4 WSW | 253 68.9 66.3
8/31/26 - 0320 66.4 36.0 32 6.2 WSW | 249 7.5 WSW | 253 68.9 66.3
8/31/26 - 0310 66.7 35.7 32 6.2 WSW | 251 7.0 WSW | 253 68.9 66.5
8/31/26 - 0300 68.4 34.7 29 5.3 SW | 233 6.6 WSW | 246 68.9 67.2
8/31/26 - 0250 68.0 32.1 26 4.1 SW | 223 5.3 SW | 215 68.9 67.4
8/31/26 - 0240 68.1 31.1 25 3.6 SW | 225 4.4 WSW | 237 68.9 67.5
8/31/26 - 0230 68.7 36.0 30 3.1 S | 180 4.1 S | 173 68.9 67.6
8/31/26 - 0220 68.2 27.2 21 3.6 SSW | 200 4.7 SSW | 213 68.6 67.6
8/31/26 - 0210 68.3 36.2 31 3.3 S | 169 4.4 SSW | 204 68.6 67.6
8/31/26 - 0200 68.4 31.3 26 2.3 SSW | 203 3.4 SW | 228 68.6 67.6
8/31/26 - 0150 68.1 31.5 26 1.2 WSW | 242 3.5 WSW | 250 68.4 67.6
8/31/26 - 0140 67.7 35.0 30 3.9 WSW | 253 4.5 W | 266 68.1 67.6
8/31/26 - 0130 68.0 32.4 27 3.4 WSW | 246 4.5 WSW | 256 68.1 67.8
8/31/26 - 0120 67.9 35.4 30 3.1 WSW | 256 3.9 W | 270 68.1 67.8
8/31/26 - 0110 68.1 36.0 31 3.8 WSW | 257 4.4 W | 263 68.1 68.0
8/31/26 - 0100 68.0 39.4 35 3.7 W | 261 4.8 W | 273 82.2 68.0
8/31/26 - 0050 68.6 38.4 33 4.2 SW | 224 5.3 SW | 215 82.2 68.2
8/31/26 - 0040 68.6 38.2 33 3.7 SSE | 161 4.2 SSE | 162 82.2 68.2
8/31/26 - 0030 68.8 38.7 33 3.9 SSE | 168 4.5 SSE | 164 82.2 68.2
8/31/26 - 0020 68.5 38.8 34 2.8 SSW | 212 3.7 SW | 222 82.2 68.2
8/31/26 - 0010 68.4 38.8 34 3.2 SW | 218 4.1 SW | 222 82.2 68.2
8/31/26 - 0000 68.2 39.5 35 4.1 SW | 222 4.7 SW | 227 82.2 68.2
8/30/26 - 2350 68.2 39.6 35 4.7 SW | 225 5.6 SW | 221 82.2 68.2
8/30/26 - 2340 68.4 39.4 35 5.6 SW | 231 6.7 SW | 233 82.2 68.3
8/30/26 - 2330 68.7 39.9 35 4.4 SSW | 213 5.7 SW | 228 82.2 68.3
8/30/26 - 2320 68.5 39.9 35 2.7 SSW | 203 4.2 SW | 234 82.2 68.3
8/30/26 - 2310 68.7 39.7 35 3.4 SW | 232 4.8 WSW | 241 82.2 68.4
8/30/26 - 2300 68.9 40.5 36 3.2 SW | 229 4.2 SW | 230 82.2 68.9
8/30/26 - 2250 69.1 43.0 39 1.8 WSW | 256 3.9 WSW | 255 82.2 68.9
8/30/26 - 2240 69.2 43.3 39 3.2 W | 264 4.4 W | 263 82.2 69.1
8/30/26 - 2230 69.4 44.8 41 2.0 WNW | 288 3.3 NW | 311 82.2 69.3
8/30/26 - 2220 69.6 47.0 44 3.2 NNW | 329 3.9 NNW | 336 82.2 69.3
8/30/26 - 2210 69.9 46.3 43 2.8 WNW | 298 4.2 WNW | 286 82.2 69.3
8/30/26 - 2200 69.9 47.2 44 3.0 NW | 310 3.7 WNW | 290 82.2 69.3
8/30/26 - 2150 69.8 44.3 40 4.5 WNW | 289 6.7 WNW | 285 82.2 69.3
8/30/26 - 2140 70.1 44.0 39 5.4 W | 276 7.5 W | 280 82.2 69.3
8/30/26 - 2130 70.3 44.6 40 4.4 W | 269 5.6 W | 278 82.2 69.3
8/30/26 - 2120 70.2 42.7 37 4.9 W | 260 5.9 W | 261 82.2 69.3
8/30/26 - 2110 69.9 40.9 35 4.3 SW | 233 5.7 SW | 236 82.2 69.3
8/30/26 - 2100 70.1 40.8 34 4.9 SW | 221 6.5 SW | 219 82.2 69.3
8/30/26 - 2050 70.2 40.5 34 5.2 SW | 233 7.9 WSW | 240 82.2 69.3
8/30/26 - 2040 70.1 40.9 35 6.5 WSW | 238 9.6 SW | 236 82.2 69.3
8/30/26 - 2030 70.0 42.6 37 7.5 SW | 228 9.6 SSW | 210 82.2 69.3
8/30/26 - 2020 70.2 42.7 37 7.6 SW | 225 10.4 SSW | 206 82.2 69.3
8/30/26 - 2010 70.0 44.3 40 8.0 SW | 215 12.1 SW | 224 82.2 69.3
8/30/26 - 2000 70.3 44.0 39 10.8 SW | 228 15.8 SW | 231 82.2 69.3
8/30/26 - 1950 70.7 43.2 37 11.8 SW | 235 16.0 WSW | 248 82.2 69.3
8/30/26 - 1940 71.0 42.5 36 11.7 WSW | 237 15.9 WSW | 246 82.2 69.3
8/30/26 - 1930 70.6 44.5 39 11.4 WSW | 237 18.7 WSW | 238 82.2 69.3
8/30/26 - 1920 70.0 48.0 45 8.0 WSW | 242 11.2 WSW | 250 82.2 69.3
8/30/26 - 1910 70.7 48.8 46 7.3 SW | 235 10.6 WSW | 245 82.2 69.3
8/30/26 - 1900 71.6 49.0 45 7.8 SW | 234 11.6 WSW | 241 82.2 69.3
8/30/26 - 1850 72.0 49.5 45 10.5 SW | 234 14.0 SW | 214 82.2 69.3
8/30/26 - 1840 72.6 49.3 44 10.4 SW | 229 14.1 SSW | 211 82.2 69.3
8/30/26 - 1830 73.4 49.6 43 11.3 SW | 234 16.7 SW | 220 82.2 69.3
8/30/26 - 1820 73.8 48.9 41 13.1 SW | 233 17.8 SW | 228 82.2 69.3
8/30/26 - 1810 74.7 46.9 37 12.4 SW | 231 18.9 SW | 215 82.2 69.3
8/30/26 - 1800 74.7 47.3 38 14.8 SW | 230 20.0 SW | 235 82.2 69.3
8/30/26 - 1750 75.3 48.4 39 16.0 SW | 226 21.6 SW | 228 82.2 69.3
8/30/26 - 1740 75.8 48.8 39 15.8 SW | 230 21.2 WSW | 237 82.2 69.3
8/30/26 - 1730 76.5 48.2 37 13.0 SW | 232 19.1 WSW | 242 82.2 69.3
8/30/26 - 1720 76.6 48.1 36 15.0 SW | 232 20.5 SW | 236 82.2 69.3
8/30/26 - 1710 76.9 50.5 40 14.1 SW | 234 24.3 SW | 231 82.2 69.3
8/30/26 - 1700 77.3 49.6 38 16.1 SW | 235 23.8 SW | 233 82.2 69.3
8/30/26 - 1650 77.9 49.6 37 15.4 SW | 234 21.8 SSW | 208 82.2 69.3
8/30/26 - 1640 77.4 49.0 37 16.4 SW | 235 24.9 SW | 233 82.2 69.3
8/30/26 - 1630 77.4 47.7 35 16.8 SW | 233 23.6 WSW | 238 82.2 69.3
8/30/26 - 1620 77.4 48.1 36 17.0 SW | 234 22.2 WSW | 237 82.2 69.3
8/30/26 - 1610 78.0 48.4 35 16.4 SW | 233 24.7 WSW | 244 82.2 69.3
8/30/26 - 1600 77.6 48.6 36 16.8 SW | 233 23.5 WSW | 241 82.2 69.3
8/30/26 - 1550 79.0 48.6 34 16.2 SW | 231 24.8 WSW | 243 82.2 69.3
8/30/26 - 1540 79.1 50.5 37 15.4 SW | 234 23.3 SW | 225 82.2 69.3
8/30/26 - 1530 79.0 48.7 35 15.5 WSW | 237 22.3 WSW | 241 82.2 69.3
8/30/26 - 1520 78.8 47.4 33 16.6 SW | 234 23.9 WSW | 245 82.2 69.3
8/30/26 - 1510 79.5 48.9 34 14.9 SW | 233 25.5 SW | 231 82.2 69.3
8/30/26 - 1500 79.2 45.8 31 16.3 SW | 235 24.0 WSW | 245 82.2 69.3
8/30/26 - 1450 79.7 46.4 31 16.4 WSW | 237 24.3 WSW | 240 82.2 69.3
8/30/26 - 1440 79.4 49.4 35 13.8 SW | 233 23.8 SW | 225 82.2 69.3
8/30/26 - 1430 79.3 49.4 35 14.6 WSW | 237 27.0 SW | 232 82.2 69.3
8/30/26 - 1420 80.0 50.2 35 13.6 SW | 232 25.2 WSW | 238 82.2 69.3
8/30/26 - 1410 80.1 50.8 36 13.2 SW | 235 23.5 SSW | 212 82.2 69.3
8/30/26 - 1400 80.1 51.6 37 13.1 SW | 230 23.4 WSW | 244 82.2 69.3
8/30/26 - 1350 80.0 49.0 34 12.4 WSW | 241 21.6 SW | 224 82.2 69.3
8/30/26 - 1340 79.1 49.6 36 13.3 SW | 233 21.7 WSW | 242 82.2 69.3
8/30/26 - 1330 80.1 49.4 34 12.8 SW | 232 22.5 SW | 225 82.2 69.3
8/30/26 - 1320 78.9 50.7 37 12.0 SW | 235 19.4 SW | 236 82.2 69.3
8/30/26 - 1310 79.6 49.8 35 10.6 SW | 227 20.5 SW | 230 82.2 69.3
8/30/26 - 1300 79.2 47.8 33 11.4 SW | 236 20.5 SW | 236 81.6 69.3
8/30/26 - 1250 79.3 47.8 33 10.4 SW | 227 18.6 W | 261 81.6 69.3
8/30/26 - 1240 79.6 47.1 32 9.6 SW | 224 16.7 WSW | 239 81.6 69.3
8/30/26 - 1230 79.2 46.0 31 10.2 SW | 232 19.6 SW | 221 81.6 69.3
8/30/26 - 1220 79.4 47.8 33 9.3 SW | 231 15.7 SW | 233 81.6 69.3
8/30/26 - 1210 78.3 48.4 35 10.4 SW | 234 17.2 SW | 227 81.6 69.3
8/30/26 - 1200 78.8 49.6 36 9.8 SW | 224 17.8 SW | 223 81.6 69.3
8/30/26 - 1150 80.0 50.7 36 7.8 SW | 223 15.4 SW | 235 81.6 69.3
8/30/26 - 1140 78.9 51.4 38 9.1 SW | 234 16.4 WSW | 237 80.5 69.3
8/30/26 - 1130 78.5 51.8 39 8.8 WSW | 244 16.2 W | 263 79.7 69.3
8/30/26 - 1120 76.8 51.9 42 9.6 WSW | 256 17.2 WSW | 255 77.8 69.3
8/30/26 - 1110 76.0 51.7 43 8.3 W | 270 14.2 W | 263 76.9 69.3
8/30/26 - 1100 75.7 51.4 43 8.2 WSW | 240 16.6 WSW | 258 76.9 69.3
8/30/26 - 1050 76.3 51.2 41 7.6 WSW | 239 12.7 SW | 219 76.9 69.3
8/30/26 - 1040 75.9 50.8 41 7.4 SW | 232 11.8 WSW | 244 76.9 69.3
8/30/26 - 1030 76.1 50.2 40 6.6 WSW | 237 12.1 WSW | 240 76.9 69.3
8/30/26 - 1020 75.4 49.4 40 5.8 WSW | 245 12.4 W | 264 76.9 69.3
8/30/26 - 1010 75.5 48.2 38 5.6 SW | 235 11.2 SW | 217 76.9 69.3
8/30/26 - 1000 75.8 47.8 37 5.1 SW | 229 10.5 W | 261 76.9 69.3
8/30/26 - 0950 75.7 47.0 36 4.7 SW | 226 9.0 SSW | 202 76.9 69.3
8/30/26 - 0940 75.7 46.8 36 3.5 SW | 214 7.2 SW | 216 76.9 69.3
8/30/26 - 0930 76.2 46.6 35 3.5 S | 184 7.7 SSE | 152 76.9 69.3
8/30/26 - 0920 76.3 46.4 35 4.5 SSE | 168 8.6 S | 169 76.9 69.3
8/30/26 - 0910 74.9 46.4 36 3.0 S | 183 7.5 S | 171 75.8 69.3
8/30/26 - 0900 74.3 46.3 37 3.3 S | 180 6.9 SSE | 165 75.1 69.3
8/30/26 - 0850 73.7 46.5 38 2.5 S | 180 4.7 SSE | 149 74.2 69.3
8/30/26 - 0840 73.4 46.4 38 2.3 SSE | 157 4.6 SE | 132 74.1 69.3
8/30/26 - 0830 73.0 46.4 39 2.6 SSE | 167 5.4 SSE | 168 74.0 69.3
8/30/26 - 0820 71.5 46.1 40 2.7 SW | 228 4.5 SW | 219 71.7 69.3
8/30/26 - 0810 71.4 46.0 40 4.1 SW | 219 5.7 SW | 226 71.7 69.3
8/30/26 - 0800 71.1 46.0 41 4.6 SW | 232 5.8 WSW | 241 71.7 69.3
8/30/26 - 0750 70.9 46.0 41 5.2 WSW | 243 6.6 WSW | 243 71.7 69.3
8/30/26 - 0740 70.8 46.1 41 5.7 SW | 236 7.7 WSW | 239 71.7 69.3
8/30/26 - 0730 70.7 46.0 41 6.6 WSW | 242 8.2 WSW | 239 71.7 69.3
8/30/26 - 0720 70.7 45.9 41 6.9 WSW | 243 8.9 SW | 216 71.7 69.3
8/30/26 - 0710 70.9 45.8 41 7.8 WSW | 251 8.9 WSW | 248 71.7 69.3
8/30/26 - 0700 70.7 45.8 41 7.1 WSW | 243 8.6 WSW | 247 71.7 69.3
8/30/26 - 0650 70.7 45.8 41 7.1 WSW | 247 8.0 WSW | 240 71.7 69.3
8/30/26 - 0640 70.5 46.2 42 6.4 WSW | 241 7.2 WSW | 247 71.7 69.3
8/30/26 - 0630 70.3 46.5 43 6.0 WSW | 238 6.9 SW | 234 71.7 69.3
8/30/26 - 0620 70.3 46.6 43 4.8 WSW | 248 6.1 WSW | 239 71.7 69.3
8/30/26 - 0610 70.3 46.7 43 5.3 WSW | 246 6.6 WSW | 245 71.7 69.3
8/30/26 - 0600 70.4 46.7 43 5.5 WSW | 245 7.7 WSW | 241 71.7 69.3
8/30/26 - 0550 70.5 46.7 43 5.8 WSW | 242 7.1 WSW | 249 71.7 69.3
8/30/26 - 0540 70.8 46.7 42 6.0 SW | 232 8.3 SW | 236 71.7 69.3
8/30/26 - 0530 70.9 46.8 42 5.3 SSW | 210 6.6 SW | 216 71.7 69.3
8/30/26 - 0520 71.1 46.8 42 6.1 SW | 215 8.0 SW | 222 71.7 69.3
8/30/26 - 0510 71.3 46.7 41 6.9 SW | 216 8.0 SW | 218 71.7 69.3
8/30/26 - 0500 71.4 46.8 41 6.9 SSW | 212 7.8 SSW | 211 71.7 69.3
8/30/26 - 0450 71.4 46.8 42 7.1 SSW | 202 8.4 SSW | 211 71.7 69.3
8/30/26 - 0440 71.5 46.9 41 7.9 SW | 214 9.9 SW | 219 71.7 69.3
Max 80.1 51.9 46 17.0 - 27.0 - 82.2 69.3
Avg 72.9 44.7 37 7.9 - 11.8 - - -
Min 66.4 27.2 21 1.2 - 3.3 - 68.1 66.3